Ariadna — ZGBE5 — position and weather

sailwx.info

Track history (hours):
 
Tides and Currents Weather Stations Pressure Air Temp Water Temp Dewpoint Dewpoint Depression Visibility Wind Speed Wind Dir Waves Ship Positions

Ariadna

Last reported at 2015-Aug-28 08:25 UTC. Time now 2015-Aug-28 09:35 UTC.
Position N 38°47' E 015°12'.

Length 47 m; draft 3.1 m.

Type: Pleasure craft. MMSI: 319026100.

Date/timePositionNaut miles runAvg speedWind from/ knotsBaromVisibWave heightAir tempDewpointWater temp
2015-Aug-28 08:25N 38°47' E 015°12'0 0.0
2015-Aug-28 07:17N 38°47' E 015°12'0 0.0
2015-Aug-28 06:33N 38°47' E 015°12'0 0.0
2015-Aug-28 05:25N 38°47' E 015°12'0 0.0
2015-Aug-28 04:08N 38°47' E 015°12'0 0.0
2015-Aug-28 03:11N 38°47' E 015°12'  
2015-Aug-25 18:33N 38°40' E 015°48'1413.3
2015-Aug-25 17:32N 38°27' E 015°45'1212.6
2015-Aug-25 16:33N 38°15' E 015°40'1211.9
2015-Aug-25 15:34N 38°03' E 015°37'35512.1
2015-Aug-24 10:19N 37°54' E 023°07'1012.6
2015-Aug-24 09:31N 37°52' E 023°19'1212.7
2015-Aug-24 08:33N 37°50' E 023°34'1111.2
2015-Aug-24 07:33N 37°43' E 023°45'54 9.9
2015-Aug-24 02:07N 37°18' E 024°46'611.2
2015-Aug-24 01:33N 37°19' E 024°54'1111.0
2015-Aug-24 00:33N 37°20' E 025°07'1110.9
2015-Aug-23 23:33N 37°21' E 025°21'1111.0
2015-Aug-23 22:33N 37°22' E 025°35'1110.8
2015-Aug-23 21:34N 37°26' E 025°47'  
2015-Aug-20 20:33N 37°10' E 027°17'  
Track history (hours):
 
Tides and Currents Weather Stations Pressure Air Temp Water Temp Dewpoint Dewpoint Depression Visibility Wind Speed Wind Dir Waves Ship Positions

Ariadna

Last reported at 2015-Aug-28 08:25 UTC. Time now 2015-Aug-28 09:35 UTC.
Position N 38°47' E 015°12'.

Length 47 m; draft 3.1 m.

Type: Pleasure craft. MMSI: 319026100.

Date/timePositionNaut miles runAvg speedWind from/ knotsBaromVisibWave heightAir tempDewpointWater temp
2015-Aug-28 08:25N 38°47' E 015°12'0 0.0
2015-Aug-28 07:17N 38°47' E 015°12'0 0.0
2015-Aug-28 06:33N 38°47' E 015°12'0 0.0
2015-Aug-28 05:25N 38°47' E 015°12'0 0.0
2015-Aug-28 04:08N 38°47' E 015°12'0 0.0
2015-Aug-28 03:11N 38°47' E 015°12'  
2015-Aug-25 18:33N 38°40' E 015°48'1413.3
2015-Aug-25 17:32N 38°27' E 015°45'1212.6
2015-Aug-25 16:33N 38°15' E 015°40'1211.9
2015-Aug-25 15:34N 38°03' E 015°37'35512.1
2015-Aug-24 10:19N 37°54' E 023°07'1012.6
2015-Aug-24 09:31N 37°52' E 023°19'1212.7
2015-Aug-24 08:33N 37°50' E 023°34'1111.2
2015-Aug-24 07:33N 37°43' E 023°45'54 9.9
2015-Aug-24 02:07N 37°18' E 024°46'611.2
2015-Aug-24 01:33N 37°19' E 024°54'1111.0
2015-Aug-24 00:33N 37°20' E 025°07'1110.9
2015-Aug-23 23:33N 37°21' E 025°21'1111.0
2015-Aug-23 22:33N 37°22' E 025°35'1110.8
2015-Aug-23 21:34N 37°26' E 025°47'  
2015-Aug-20 20:33N 37°10' E 027°17'  

Dump ship's entire track history